Terminal Aerodrome Forecast
Issued by NWS State College, PA

Home | Current Version | Previous Version | Text Only | Print | Product List | Glossary On
Versions: 1 2 3 4 5 6 7 8 9 10 11 12 13 14 15 16 17 18 19 20 21 22 23 24 25 26 27 28 29 30 31 32 33 34 35 36
000
FTUS41 KCTP 242359
TAFIPT
TAF
KIPT 242359Z 2500/2524 27008KT P6SM BKN028 BKN035 OVC060
     FM250400 29010KT P6SM OVC030
     FM250900 28006KT P6SM OVC025
     FM251500 11005KT P6SM OVC050=

USA.gov is the U.S. government's official web portal to all federal, state and local government web resources and services.